Time;durP1;ratioP1;P1;durP2;ratioP2;P2;SDS_P1;SDS_P2;PMS_P1;PMS_P2;Temp;Humidity;BMP_temperature;BMP_pressure;BME280_temperature;BME280_humidity;BME280_pressure;Samples;Min_cycle;Max_cycle;Signal;HPM_P1;HPM_P2
2022/09/05 00:02:02;;;;;;;3.90;3.47;;;16.00;99.90;;;;;;5007555;28;20044;-75
2022/09/05 00:04:43;;;;;;;4.15;3.35;;;16.10;99.90;;;;;;5002182;28;20101;-74
2022/09/05 00:07:32;;;;;;;4.10;3.33;;;16.30;99.90;;;;;;5000555;28;20413;-74
2022/09/05 00:10:24;;;;;;;4.03;3.40;;;16.20;99.90;;;;;;5013682;28;20030;-75
2022/09/05 00:12:54;;;;;;;4.43;3.80;;;16.20;99.90;;;;;;4976375;28;20049;-74
2022/09/05 00:15:35;;;;;;;4.10;3.08;;;16.10;99.90;;;;;;4978389;28;20026;-73
2022/09/05 00:18:26;;;;;;;3.35;3.05;;;16.10;99.90;;;;;;5006842;28;20022;-73
2022/09/05 00:21:00;;;;;;;4.05;3.65;;;16.20;99.90;;;;;;4985260;28;20045;-73
2022/09/05 00:23:40;;;;;;;4.75;3.30;;;16.20;99.90;;;;;;4993813;28;20026;-74
2022/09/05 00:26:24;;;;;;;4.18;3.55;;;16.30;99.90;;;;;;4993791;28;20021;-74
2022/09/05 00:29:20;;;;;;;4.82;3.75;;;16.30;99.90;;;;;;5002319;28;20088;-74
2022/09/05 00:32:00;;;;;;;4.32;3.33;;;16.30;99.90;;;;;;4995612;28;20088;-74
2022/09/05 00:34:43;;;;;;;3.63;3.33;;;16.10;99.90;;;;;;5013352;28;20026;-73
2022/09/05 00:37:10;;;;;;;4.25;3.25;;;16.10;99.90;;;;;;5002318;28;20072;-75
2022/09/05 00:39:41;;;;;;;3.78;3.47;;;16.20;99.90;;;;;;5010663;28;20022;-74
2022/09/05 00:42:12;;;;;;;3.63;3.28;;;16.10;99.90;;;;;;4984298;28;20369;-74
2022/09/05 00:44:49;;;;;;;3.72;3.30;;;16.20;99.90;;;;;;5006563;28;20026;-74
2022/09/05 00:47:46;;;;;;;4.05;3.45;;;16.20;99.90;;;;;;5006488;28;20026;-73
2022/09/05 00:50:29;;;;;;;5.03;3.38;;;16.20;99.90;;;;;;5004013;28;20030;-74
2022/09/05 00:53:01;;;;;;;4.45;3.38;;;16.10;99.90;;;;;;4999730;28;20029;-73
2022/09/05 00:55:45;;;;;;;5.03;3.60;;;16.00;99.90;;;;;;4981733;28;20023;-74
2022/09/05 00:58:29;;;;;;;3.47;3.15;;;16.10;99.90;;;;;;4993003;28;20049;-73
2022/09/05 01:01:00;;;;;;;3.60;3.30;;;16.00;99.90;;;;;;5011459;28;20026;-73
2022/09/05 01:03:40;;;;;;;4.00;3.30;;;16.00;99.90;;;;;;5012759;28;20022;-73
2022/09/05 01:06:28;;;;;;;4.88;3.83;;;16.10;99.90;;;;;;5004807;28;20477;-73
2022/09/05 01:09:23;;;;;;;5.50;3.67;;;15.80;99.90;;;;;;5010251;28;20034;-74
2022/09/05 01:12:17;;;;;;;3.85;3.55;;;15.80;99.90;;;;;;4989278;28;20476;-73
2022/09/05 01:15:18;;;;;;;6.35;4.05;;;15.80;99.90;;;;;;4992939;28;20034;-73
2022/09/05 01:17:51;;;;;;;5.20;3.95;;;15.60;99.90;;;;;;4975209;28;20030;-73
2022/09/05 01:20:27;;;;;;;4.32;3.92;;;15.50;99.90;;;;;;5006065;28;20083;-73
2022/09/05 01:23:11;;;;;;;5.03;4.53;;;15.60;99.90;;;;;;5005974;28;20430;-73
2022/09/05 01:26:07;;;;;;;3.95;3.22;;;15.40;99.90;;;;;;5013022;28;20611;-73
2022/09/05 01:28:51;;;;;;;3.93;3.57;;;15.50;99.90;;;;;;4992858;28;20030;-73
2022/09/05 01:31:25;;;;;;;4.40;4.00;;;15.50;99.90;;;;;;4992630;28;20118;-73
2022/09/05 01:34:07;;;;;;;4.20;3.80;;;15.40;99.90;;;;;;4975156;28;20085;-73
2022/09/05 01:37:11;;;;;;;5.55;4.00;;;15.40;99.90;;;;;;4992238;28;20026;-73
2022/09/05 01:39:36;;;;;;;4.22;3.83;;;15.50;99.90;;;;;;5005735;28;20041;-73
2022/09/05 01:42:07;;;;;;;5.72;4.03;;;15.60;99.90;;;;;;4992529;28;20101;-73
2022/09/05 01:44:55;;;;;;;5.90;4.40;;;15.60;99.90;;;;;;4992358;28;20502;-73
2022/09/05 01:47:27;;;;;;;5.63;4.20;;;15.60;99.90;;;;;;5005553;28;20030;-74
2022/09/05 01:50:30;;;;;;;4.50;4.07;;;15.50;99.90;;;;;;4992416;28;20033;-74
2022/09/05 01:53:24;;;;;;;4.85;4.10;;;15.50;99.90;;;;;;4999303;28;20057;-74
2022/09/05 01:56:06;;;;;;;4.82;4.20;;;15.60;99.90;;;;;;4998952;28;20064;-74
2022/09/05 01:58:53;;;;;;;4.78;4.38;;;15.50;99.90;;;;;;5011692;28;20026;-74
2022/09/05 02:01:40;;;;;;;5.88;5.22;;;15.40;99.90;;;;;;5011816;28;20018;-73
2022/09/05 02:04:27;;;;;;;5.65;5.05;;;15.10;99.90;;;;;;4993169;28;20057;-74
2022/09/05 02:07:05;;;;;;;;;;;15.00;99.90;;;;;;4992570;28;20050;-74
2022/09/05 02:09:40;;;;;;;4.68;4.28;;;15.00;99.90;;;;;;4992103;28;19952;-74
2022/09/05 02:12:14;;;;;;;4.60;4.20;;;15.00;99.90;;;;;;5009966;28;20036;-73
2022/09/05 02:14:50;;;;;;;4.88;4.47;;;15.20;99.90;;;;;;4999241;28;20082;-72
2022/09/05 02:17:39;;;;;;;6.10;4.50;;;15.20;99.90;;;;;;4991915;28;20026;-72
2022/09/05 02:20:32;;;;;;;4.07;3.70;;;15.20;99.90;;;;;;5008930;28;20022;-76
2022/09/05 02:23:06;;;;;;;7.05;4.35;;;15.20;99.90;;;;;;4993519;28;20027;-73
2022/09/05 02:25:57;;;;;;;4.47;4.07;;;15.30;99.90;;;;;;4992179;28;20022;-74
2022/09/05 02:28:54;;;;;;;5.35;4.63;;;15.30;99.90;;;;;;5004931;28;20104;-73
2022/09/05 02:31:31;;;;;;;4.90;4.43;;;15.30;99.90;;;;;;5005500;28;20049;-74
2022/09/05 02:34:38;;;;;;;6.15;4.70;;;15.20;99.90;;;;;;5003274;28;20030;-74
2022/09/05 02:37:07;;;;;;;4.68;4.28;;;15.20;99.90;;;;;;5001954;28;20029;-74
2022/09/05 02:39:46;;;;;;;6.60;4.60;;;15.20;99.90;;;;;;4980740;28;20438;-73
2022/09/05 02:42:21;;;;;;;5.10;4.38;;;15.30;99.90;;;;;;4999439;28;20018;-74
2022/09/05 02:45:04;;;;;;;5.32;4.38;;;15.30;99.90;;;;;;4998611;28;20060;-74
2022/09/05 02:47:56;;;;;;;5.47;5.00;;;15.40;99.90;;;;;;5011405;28;20030;-73
2022/09/05 02:50:27;;;;;;;5.50;4.75;;;15.40;99.90;;;;;;5014155;28;20026;-74
2022/09/05 02:52:55;;;;;;;5.45;4.95;;;15.40;99.90;;;;;;4985029;28;20468;-74
2022/09/05 02:55:33;;;;;;;7.45;4.68;;;15.40;99.90;;;;;;5014741;28;20109;-73
2022/09/05 02:58:11;;;;;;;5.75;5.25;;;15.20;99.90;;;;;;4986407;28;20030;-73
2022/09/05 03:00:53;;;;;;;6.00;5.50;;;14.90;99.90;;;;;;5001765;28;20153;-73
2022/09/05 03:03:36;;;;;;;6.10;5.50;;;14.60;99.90;;;;;;5002579;28;20522;-73
2022/09/05 03:06:14;;;;;;;5.57;4.70;;;14.70;99.90;;;;;;4995421;28;20050;-73
2022/09/05 03:08:48;;;;;;;5.72;4.80;;;14.80;99.90;;;;;;5008153;28;20038;-73
2022/09/05 03:11:32;;;;;;;5.60;4.75;;;14.80;99.90;;;;;;4995303;28;20046;-73
2022/09/05 03:14:17;;;;;;;5.82;5.05;;;15.00;99.90;;;;;;4995205;28;20148;-73
2022/09/05 03:17:10;;;;;;;6.00;5.32;;;15.00;99.90;;;;;;4977719;28;20030;-74
2022/09/05 03:19:50;;;;;;;5.53;5.00;;;14.80;99.90;;;;;;4995094;28;20030;-74
2022/09/05 03:22:27;;;;;;;6.53;5.70;;;14.80;99.90;;;;;;4988873;28;20023;-74
2022/09/05 03:25:43;;;;;;;5.80;4.85;;;14.90;99.90;;;;;;4996967;28;20033;-73
2022/09/05 03:28:17;;;;;;;5.60;5.10;;;14.90;99.90;;;;;;4937732;29;20565;-73
2022/09/05 03:30:58;;;;;;;5.78;4.93;;;14.70;99.90;;;;;;4944926;29;20042;-74
2022/09/05 03:33:26;;;;;;;5.22;4.70;;;14.60;99.90;;;;;;4985391;28;20034;-74
2022/09/05 03:36:17;;;;;;;5.28;4.40;;;14.70;99.90;;;;;;5008045;28;20083;-74
2022/09/05 03:39:13;;;;;;;5.80;4.90;;;14.80;99.90;;;;;;4994482;28;20499;-74
2022/09/05 03:42:06;;;;;;;5.68;5.18;;;14.70;99.90;;;;;;5002157;28;20103;-74
2022/09/05 03:44:47;;;;;;;5.32;4.82;;;14.70;99.90;;;;;;4978884;28;20033;-74
2022/09/05 03:47:31;;;;;;;5.97;5.38;;;14.70;99.90;;;;;;4976946;28;20508;-74
2022/09/05 03:50:21;;;;;;;7.93;6.78;;;14.50;99.90;;;;;;4986351;28;20049;-74
2022/09/05 03:53:25;;;;;;;7.18;6.32;;;14.30;99.90;;;;;;4969376;28;20104;-75
2022/09/05 03:56:09;;;;;;;6.60;5.70;;;14.30;99.90;;;;;;5000736;28;20072;-75
2022/09/05 03:59:05;;;;;;;6.97;6.28;;;14.30;99.90;;;;;;4982395;28;20042;-75
2022/09/05 04:01:49;;;;;;;6.85;6.25;;;14.30;99.90;;;;;;4994105;28;20034;-74
2022/09/05 04:04:40;;;;;;;6.25;5.68;;;14.20;99.90;;;;;;5001305;28;20097;-73
2022/09/05 04:07:14;;;;;;;6.00;5.25;;;14.30;99.90;;;;;;4972329;28;20487;-73
2022/09/05 04:09:58;;;;;;;6.30;5.70;;;14.30;99.90;;;;;;4992774;28;20109;-73
2022/09/05 04:12:30;;;;;;;6.35;5.85;;;14.30;99.90;;;;;;5000848;28;20030;-73
2022/09/05 04:15:16;;;;;;;6.80;6.20;;;14.40;99.90;;;;;;4998381;28;20564;-73
2022/09/05 04:17:46;;;;;;;5.93;5.43;;;14.40;99.90;;;;;;4993906;28;20034;-73
2022/09/05 04:20:40;;;;;;;6.40;5.07;;;14.20;99.90;;;;;;4989712;28;20028;-73
2022/09/05 04:23:14;;;;;;;5.47;4.97;;;14.20;99.90;;;;;;4995620;28;20022;-73
2022/09/05 04:25:57;;;;;;;6.25;5.65;;;14.20;99.90;;;;;;5003773;28;20031;-73
2022/09/05 04:28:41;;;;;;;6.07;5.50;;;14.30;99.90;;;;;;4999321;28;20037;-74
2022/09/05 04:31:25;;;;;;;6.32;5.72;;;14.20;99.90;;;;;;4981910;28;20030;-72
2022/09/05 04:33:59;;;;;;;6.28;5.40;;;14.20;99.90;;;;;;5003901;28;20185;-74
2022/09/05 04:36:29;;;;;;;9.35;6.55;;;14.10;99.90;;;;;;4999269;28;20032;-74
2022/09/05 04:39:16;;;;;;;7.13;6.28;;;14.40;99.90;;;;;;5000787;28;20103;-73
2022/09/05 04:42:02;;;;;;;6.47;5.38;;;14.20;99.90;;;;;;4993657;28;20376;-75
2022/09/05 04:44:41;;;;;;;6.77;6.07;;;14.20;99.90;;;;;;4989006;28;20117;-73
2022/09/05 04:47:18;;;;;;;7.20;6.28;;;14.20;99.90;;;;;;5006221;28;20320;-72
2022/09/05 04:49:49;;;;;;;7.30;6.60;;;14.10;99.90;;;;;;5000936;28;20105;-73
2022/09/05 04:52:24;;;;;;;6.03;5.43;;;13.80;99.90;;;;;;4999981;28;20030;-73
2022/09/05 04:55:01;;;;;;;5.90;5.40;;;13.90;99.90;;;;;;5003379;28;20400;-73
2022/09/05 04:57:44;;;;;;;6.55;5.95;;;14.00;99.90;;;;;;5006262;28;20034;-73
2022/09/05 05:00:15;;;;;;;6.30;5.25;;;14.20;99.90;;;;;;5006444;28;20440;-73
2022/09/05 05:02:45;;;;;;;7.38;6.13;;;14.20;99.90;;;;;;5012666;28;20569;-73
2022/09/05 05:05:45;;;;;;;6.80;5.90;;;14.20;99.90;;;;;;4998472;28;20056;-73
2022/09/05 05:08:20;;;;;;;7.47;6.78;;;14.00;99.90;;;;;;4971091;28;20066;-73
2022/09/05 05:10:50;;;;;;;7.13;6.43;;;14.20;99.90;;;;;;4992907;28;20061;-72
2022/09/05 05:13:45;;;;;;;6.28;5.68;;;14.00;99.90;;;;;;5005563;28;20029;-74
2022/09/05 05:16:20;;;;;;;6.28;5.68;;;14.10;99.90;;;;;;4975509;28;20496;-73
2022/09/05 05:18:51;;;;;;;6.25;5.65;;;14.20;99.90;;;;;;5005910;28;20123;-74
2022/09/05 05:21:24;;;;;;;10.30;6.25;;;14.20;99.90;;;;;;4992764;28;20628;-74
2022/09/05 05:23:55;;;;;;;6.53;5.93;;;14.50;99.90;;;;;;5000631;28;20029;-74
2022/09/05 05:26:39;;;;;;;6.13;5.53;;;14.50;99.90;;;;;;4999196;28;20169;-73
2022/09/05 05:29:18;;;;;;;7.18;6.47;;;14.70;99.90;;;;;;5001136;28;20023;-73
2022/09/05 05:32:00;;;;;;;7.05;5.78;;;14.90;99.90;;;;;;5012040;28;20024;-74
2022/09/05 05:34:33;;;;;;;7.28;6.57;;;15.20;99.90;;;;;;5047077;23;20144;-76
2022/09/05 05:37:30;;;;;;;6.70;6.10;;;15.20;99.90;;;;;;5034314;28;20021;-76
2022/09/05 05:40:14;;;;;;;7.60;6.80;;;15.40;99.90;;;;;;5043304;28;20037;-76
2022/09/05 05:42:41;;;;;;;7.30;6.35;;;15.40;99.90;;;;;;5047747;28;20113;-76
2022/09/05 05:45:30;;;;;;;6.78;5.85;;;15.40;99.90;;;;;;5022455;28;20025;-75
2022/09/05 05:48:03;;;;;;;6.82;6.22;;;15.40;99.90;;;;;;5024139;28;20053;-75
2022/09/05 05:51:05;;;;;;;7.38;6.10;;;15.50;99.90;;;;;;5017889;28;20061;-77
2022/09/05 05:53:56;;;;;;;9.05;6.88;;;15.60;99.90;;;;;;5021334;28;20403;-76
2022/09/05 05:56:59;;;;;;;8.77;6.95;;;15.40;99.90;;;;;;5031046;28;20064;-75
2022/09/05 05:59:33;;;;;;;9.18;6.68;;;15.70;99.90;;;;;;5031785;28;20078;-75
2022/09/05 06:02:14;;;;;;;7.03;6.32;;;15.90;99.90;;;;;;5018615;28;20073;-76
2022/09/05 06:05:11;;;;;;;7.53;6.43;;;15.70;99.90;;;;;;5020653;28;20033;-75
2022/09/05 06:08:00;;;;;;;6.75;6.15;;;15.20;99.90;;;;;;5019107;28;20071;-75
2022/09/05 06:10:51;;;;;;;6.60;5.90;;;15.50;99.90;;;;;;5027637;28;20403;-75
2022/09/05 06:13:41;;;;;;;6.25;5.65;;;15.60;99.90;;;;;;5025712;28;20026;-75
2022/09/05 06:16:28;;;;;;;5.65;5.15;;;15.90;99.90;;;;;;5020525;28;20096;-75
2022/09/05 06:19:02;;;;;;;5.80;5.30;;;15.90;99.90;;;;;;5010328;28;20046;-74
2022/09/05 06:21:52;;;;;;;6.00;5.45;;;15.90;99.90;;;;;;5026529;28;20120;-74
2022/09/05 06:24:35;;;;;;;6.20;5.60;;;16.10;99.90;;;;;;5022729;28;20018;-74
2022/09/05 06:27:26;;;;;;;7.43;5.50;;;16.20;99.90;;;;;;5015489;28;20534;-72
2022/09/05 06:30:04;;;;;;;5.78;5.28;;;16.40;99.90;;;;;;5015391;28;20065;-72
2022/09/05 06:33:01;;;;;;;6.60;5.30;;;16.40;99.90;;;;;;5015634;28;20022;-75
2022/09/05 06:36:00;;;;;;;6.10;5.50;;;16.50;99.90;;;;;;5015429;28;20046;-75
2022/09/05 06:38:44;;;;;;;6.25;5.13;;;16.60;99.90;;;;;;5015091;28;20040;-75
2022/09/05 06:41:29;;;;;;;5.53;5.03;;;16.60;99.90;;;;;;5028069;28;20026;-75
2022/09/05 06:43:57;;;;;;;7.15;6.07;;;16.70;99.90;;;;;;5027300;28;20021;-75
2022/09/05 06:46:37;;;;;;;6.50;5.40;;;16.60;99.90;;;;;;5035703;28;20025;-77
2022/09/05 06:49:24;;;;;;;7.65;5.57;;;16.60;99.90;;;;;;5019874;28;20056;-77
2022/09/05 06:52:08;;;;;;;5.80;4.90;;;16.80;99.90;;;;;;5022539;28;20057;-76
2022/09/05 06:54:52;;;;;;;6.47;4.70;;;16.90;99.90;;;;;;5020596;28;20100;-78
2022/09/05 06:57:24;;;;;;;5.57;4.50;;;17.10;99.90;;;;;;5031560;28;20479;-78
2022/09/05 07:00:05;;;;;;;5.57;5.00;;;17.30;99.90;;;;;;5023828;28;20681;-77
2022/09/05 07:02:49;;;;;;;5.07;4.43;;;17.50;99.90;;;;;;5034028;28;20022;-77
2022/09/05 07:05:21;;;;;;;5.45;4.95;;;17.60;99.90;;;;;;5032889;28;20025;-77
2022/09/05 07:08:14;;;;;;;6.82;5.00;;;17.60;99.90;;;;;;5034364;28;20531;-77
2022/09/05 07:10:46;;;;;;;7.68;5.50;;;17.90;99.90;;;;;;5019971;28;20033;-77
2022/09/05 07:13:30;;;;;;;5.28;4.78;;;17.60;99.90;;;;;;5025752;28;20411;-76
2022/09/05 07:16:08;;;;;;;6.53;5.05;;;17.80;99.90;;;;;;5023336;28;20388;-76
2022/09/05 07:19:16;;;;;;;5.68;5.18;;;18.10;99.90;;;;;;5027246;28;20025;-77
2022/09/05 07:22:31;;;;;;;6.18;5.00;;;18.10;99.90;;;;;;5019208;28;20037;-77
2022/09/05 07:25:00;;;;;;;5.10;4.68;;;18.20;99.90;;;;;;5026231;28;20072;-77
2022/09/05 07:27:32;;;;;;;5.57;4.45;;;18.40;99.90;;;;;;5009483;28;20076;-77
2022/09/05 07:29:59;;;;;;;5.93;4.70;;;18.60;99.90;;;;;;5027784;28;20032;-76
2022/09/05 07:32:27;;;;;;;5.07;4.25;;;18.40;99.90;;;;;;5033653;28;20109;-75
2022/09/05 07:34:54;;;;;;;5.03;4.57;;;18.70;99.90;;;;;;5019917;28;20068;-75
2022/09/05 07:37:34;;;;;;;5.75;4.70;;;19.00;99.90;;;;;;5021063;28;20056;-75
2022/09/05 07:40:08;;;;;;;4.50;3.70;;;19.00;99.90;;;;;;5022491;28;20021;-75
2022/09/05 07:42:38;;;;;;;6.47;4.50;;;19.20;99.90;;;;;;5033943;28;20018;-75
2022/09/05 07:45:16;;;;;;;5.20;4.70;;;19.30;99.90;;;;;;5028572;28;20482;-76
2022/09/05 07:47:52;;;;;;;4.63;4.13;;;19.40;99.90;;;;;;5030258;28;20495;-78
2022/09/05 07:50:19;;;;;;;;;;;19.50;99.90;;;;;;5035661;28;20021;-73
2022/09/05 07:52:47;;;;;;;5.43;3.88;;;19.60;99.90;;;;;;5034023;28;19905;-74
2022/09/05 07:55:26;;;;;;;4.47;3.88;;;19.70;99.90;;;;;;5033655;28;20616;-73
2022/09/05 07:57:56;;;;;;;3.78;3.47;;;19.90;99.90;;;;;;5033582;28;20025;-74
2022/09/05 08:00:25;;;;;;;4.72;3.90;;;20.00;99.90;;;;;;5033925;28;20021;-73
2022/09/05 08:02:50;;;;;;;4.90;4.00;;;20.10;99.90;;;;;;5033621;28;20100;-73
2022/09/05 08:05:20;;;;;;;6.88;3.83;;;20.20;99.90;;;;;;5032118;28;20108;-73
2022/09/05 08:07:53;;;;;;;4.07;3.67;;;20.30;99.90;;;;;;5032990;28;20060;-73
2022/09/05 08:10:26;;;;;;;7.88;4.65;;;20.40;99.90;;;;;;5030752;28;20087;-74
2022/09/05 08:13:07;;;;;;;4.20;3.60;;;20.60;99.90;;;;;;5033433;28;20017;-73
2022/09/05 08:15:34;;;;;;;3.78;3.17;;;20.70;99.90;;;;;;5018667;28;20072;-74
2022/09/05 08:18:23;;;;;;;5.15;3.28;;;20.80;99.90;;;;;;5032956;28;20383;-75
2022/09/05 08:21:09;;;;;;;4.32;3.38;;;20.90;99.90;;;;;;5033142;28;20057;-74
2022/09/05 08:23:50;;;;;;;3.85;3.50;;;21.10;99.90;;;;;;5013805;28;20550;-73
2022/09/05 08:26:34;;;;;;;3.53;3.20;;;21.10;99.90;;;;;;5013294;28;20045;-73
2022/09/05 08:29:25;;;;;;;4.40;2.85;;;21.30;99.90;;;;;;5013198;28;20030;-74
2022/09/05 08:32:07;;;;;;;4.25;3.30;;;21.60;99.90;;;;;;5013464;28;20034;-73
2022/09/05 08:35:00;;;;;;;3.90;3.50;;;21.70;99.90;;;;;;5012971;28;20068;-74
2022/09/05 08:37:27;;;;;;;3.72;3.42;;;21.90;99.90;;;;;;5012847;28;20026;-73
2022/09/05 08:39:58;;;;;;;4.10;2.80;;;22.00;99.90;;;;;;5013136;28;20372;-74
2022/09/05 08:42:34;;;;;;;3.15;2.83;;;22.00;99.90;;;;;;5011768;28;20122;-74
2022/09/05 08:45:26;;;;;;;3.85;3.00;;;22.30;99.90;;;;;;5011725;28;20064;-74
2022/09/05 08:48:18;;;;;;;3.80;2.78;;;22.50;99.90;;;;;;5011770;28;20029;-74
2022/09/05 08:50:53;;;;;;;3.25;2.55;;;22.40;99.90;;;;;;5012875;28;20076;-74
2022/09/05 08:53:40;;;;;;;2.65;2.40;;;22.40;99.90;;;;;;5012794;28;20033;-75
2022/09/05 08:56:22;;;;;;;2.90;2.60;;;22.60;99.90;;;;;;5012823;28;20026;-73
2022/09/05 08:59:15;;;;;;;2.63;2.40;;;22.60;99.90;;;;;;5011130;28;20034;-74
2022/09/05 09:01:49;;;;;;;3.20;2.58;;;22.80;99.90;;;;;;5012752;28;20022;-74
2022/09/05 09:04:41;;;;;;;2.72;2.53;;;22.70;99.90;;;;;;5012512;28;20220;-73
2022/09/05 09:07:15;;;;;;;4.35;2.50;;;22.70;99.90;;;;;;5015721;28;20052;-74
2022/09/05 09:09:55;;;;;;;2.47;2.28;;;22.90;99.90;;;;;;5019941;28;20030;-74
2022/09/05 09:13:01;;;;;;;3.15;2.17;;;23.00;99.90;;;;;;5018946;28;20030;-73
2022/09/05 09:15:40;;;;;;;3.40;2.30;;;23.10;99.90;;;;;;5019491;28;20539;-73
2022/09/05 09:18:17;;;;;;;3.22;2.15;;;23.30;99.90;;;;;;5030689;28;20068;-74
2022/09/05 09:20:55;;;;;;;2.50;2.30;;;23.40;99.90;;;;;;5030541;28;20030;-74
2022/09/05 09:23:44;;;;;;;3.22;2.25;;;23.70;99.90;;;;;;5018520;28;20021;-74
2022/09/05 09:26:31;;;;;;;3.55;2.53;;;23.70;99.90;;;;;;5013872;28;20049;-74
2022/09/05 09:29:02;;;;;;;2.53;2.33;;;23.60;99.90;;;;;;5025863;28;20061;-74
2022/09/05 09:31:54;;;;;;;2.70;2.50;;;23.40;99.90;;;;;;5035179;28;20017;-74
2022/09/05 09:34:30;;;;;;;4.65;2.10;;;23.50;99.90;;;;;;5026918;28;20053;-74
2022/09/05 09:37:23;;;;;;;4.03;2.50;;;23.60;99.90;;;;;;5022039;28;20033;-75
2022/09/05 09:40:21;;;;;;;3.20;2.22;;;23.90;99.90;;;;;;5017279;28;20044;-74
2022/09/05 09:43:13;;;;;;;4.18;2.63;;;24.00;99.90;;;;;;5025425;28;20025;-75
2022/09/05 09:46:05;;;;;;;2.53;2.33;;;23.70;99.90;;;;;;5022976;28;20400;-73
2022/09/05 09:48:47;;;;;;;2.80;2.60;;;23.90;99.90;;;;;;5031556;28;20060;-74
2022/09/05 09:51:17;;;;;;;5.05;2.90;;;24.00;99.90;;;;;;5026294;28;20407;-74
2022/09/05 09:54:02;;;;;;;4.47;2.60;;;24.20;99.90;;;;;;5029562;28;20036;-74
2022/09/05 09:56:37;;;;;;;3.60;2.45;;;24.20;99.90;;;;;;5011950;28;20021;-74
2022/09/05 09:59:30;;;;;;;4.90;2.92;;;24.30;99.90;;;;;;5012322;28;20033;-72
2022/09/05 10:02:30;;;;;;;3.20;2.53;;;24.60;99.90;;;;;;5029372;28;20380;-74
2022/09/05 10:04:59;;;;;;;3.88;2.75;;;24.30;99.90;;;;;;5031037;28;20017;-74
2022/09/05 10:08:06;;;;;;;4.07;2.33;;;24.30;99.90;;;;;;5030932;28;20029;-74
2022/09/05 10:10:51;;;;;;;;;;;24.40;99.90;;;;;;5029909;28;20057;-74
2022/09/05 10:13:23;;;;;;;3.65;2.70;;;24.70;99.90;;;;;;5029463;28;19988;-74
2022/09/05 10:16:16;;;;;;;2.70;2.50;;;24.60;99.90;;;;;;5024792;28;20076;-73
2022/09/05 10:18:41;;;;;;;4.35;2.40;;;24.70;99.90;;;;;;5021976;28;20029;-74
2022/09/05 10:21:33;;;;;;;3.55;2.22;;;25.10;99.90;;;;;;5013854;28;20530;-73
2022/09/05 10:24:37;;;;;;;4.47;2.47;;;25.10;99.90;;;;;;5027380;28;20038;-74
2022/09/05 10:27:03;;;;;;;2.50;2.25;;;25.20;99.90;;;;;;5029449;28;20083;-73
2022/09/05 10:29:45;;;;;;;2.72;2.53;;;25.40;99.90;;;;;;5029163;28;20033;-74
2022/09/05 10:32:40;;;;;;;2.40;2.20;;;25.50;99.90;;;;;;5029160;28;20029;-74
2022/09/05 10:35:14;;;;;;;3.60;2.13;;;25.40;99.90;;;;;;5010485;28;20095;-72
2022/09/05 10:37:43;;;;;;;4.68;2.47;;;25.30;99.90;;;;;;5027537;28;20036;-74
2022/09/05 10:40:13;;;;;;;3.67;2.20;;;25.40;99.90;;;;;;5028999;28;20026;-74
2022/09/05 10:42:50;;;;;;;3.10;2.10;;;25.30;99.90;;;;;;5029051;28;20034;-74
2022/09/05 10:45:44;;;;;;;3.65;2.47;;;25.10;99.90;;;;;;5027572;28;20104;-73
2022/09/05 10:48:22;;;;;;;4.32;2.05;;;25.10;99.90;;;;;;5018614;28;20148;-74
2022/09/05 10:51:14;;;;;;;3.30;2.15;;;24.80;99.90;;;;;;5028911;28;20040;-74
2022/09/05 10:54:21;;;;;;;2.63;2.40;;;24.70;99.90;;;;;;5028875;28;20026;-74
2022/09/05 10:57:19;;;;;;;5.22;2.50;;;24.70;99.90;;;;;;5029327;28;20025;-74
2022/09/05 10:59:55;;;;;;;3.22;2.50;;;24.90;99.90;;;;;;5027758;28;20033;-74
2022/09/05 11:02:22;;;;;;;3.35;1.88;;;24.90;99.90;;;;;;5028762;28;20071;-74
2022/09/05 11:05:00;;;;;;;2.35;2.03;;;25.40;99.90;;;;;;5028615;28;20029;-74
2022/09/05 11:07:47;;;;;;;2.47;2.03;;;25.60;99.90;;;;;;5028632;28;20483;-75
2022/09/05 11:10:30;;;;;;;2.35;2.15;;;25.50;99.90;;;;;;5029660;28;20034;-74
2022/09/05 11:13:33;;;;;;;2.60;2.00;;;25.50;99.90;;;;;;5032411;28;20026;-74
2022/09/05 11:16:10;;;;;;;2.30;2.00;;;25.40;99.90;;;;;;5012537;28;20423;-74
2022/09/05 11:18:54;;;;;;;2.35;2.15;;;25.40;99.90;;;;;;5012115;28;20049;-75
2022/09/05 11:21:38;;;;;;;3.10;2.20;;;25.30;99.90;;;;;;5017266;28;20147;-75
2022/09/05 11:24:30;;;;;;;3.25;2.28;;;25.70;99.90;;;;;;5012484;28;20037;-75
2022/09/05 11:27:09;;;;;;;5.35;2.20;;;26.00;99.90;;;;;;5012045;28;20052;-75
2022/09/05 11:29:42;;;;;;;3.15;2.17;;;26.40;99.90;;;;;;5013415;28;20026;-74
2022/09/05 11:32:22;;;;;;;2.67;2.20;;;25.90;99.90;;;;;;5013228;28;20076;-75
2022/09/05 11:34:51;;;;;;;3.60;2.33;;;26.10;99.90;;;;;;5018939;28;20033;-73
2022/09/05 11:37:40;;;;;;;4.00;2.30;;;25.80;99.90;;;;;;5022716;28;20029;-73
2022/09/05 11:40:17;;;;;;;4.70;2.20;;;26.30;99.90;;;;;;5019110;28;20038;-74
2022/09/05 11:42:57;;;;;;;3.13;2.05;;;26.30;99.90;;;;;;5018028;28;20022;-74
2022/09/05 11:45:53;;;;;;;4.80;2.20;;;26.50;99.90;;;;;;5025258;28;20033;-74
2022/09/05 11:48:50;;;;;;;2.33;1.77;;;26.40;99.90;;;;;;5025421;28;20026;-74
2022/09/05 11:51:21;;;;;;;;;;;26.10;99.90;;;;;;5033718;28;20022;-75
2022/09/05 11:54:25;;;;;;;3.45;2.45;;;26.20;99.90;;;;;;5020591;28;19906;-74
2022/09/05 11:56:56;;;;;;;3.33;2.20;;;26.80;99.90;;;;;;5021780;28;20026;-74
2022/09/05 11:59:37;;;;;;;3.45;2.50;;;26.50;99.90;;;;;;5026024;28;20392;-74
2022/09/05 12:02:23;;;;;;;2.35;2.15;;;26.60;99.90;;;;;;5027241;28;20101;-74
2022/09/05 12:04:51;;;;;;;3.58;2.05;;;27.40;99.90;;;;;;5014856;28;20038;-74
2022/09/05 12:07:48;;;;;;;3.20;1.98;;;27.20;99.90;;;;;;5018462;28;20028;-74
2022/09/05 12:10:57;;;;;;;2.60;2.13;;;26.30;99.90;;;;;;5019972;28;20041;-74
2022/09/05 12:13:41;;;;;;;3.42;2.20;;;25.80;99.90;;;;;;5019796;28;20061;-74
2022/09/05 12:16:55;;;;;;;2.20;2.00;;;25.50;99.90;;;;;;5027464;28;20089;-74
2022/09/05 12:19:48;;;;;;;2.17;1.98;;;25.50;99.90;;;;;;5023913;28;20037;-74
2022/09/05 12:22:21;;;;;;;3.35;2.10;;;25.50;99.90;;;;;;5021600;28;20042;-73
2022/09/05 12:25:02;;;;;;;2.63;2.05;;;25.20;99.90;;;;;;5025554;28;20510;-74
2022/09/05 12:27:31;;;;;;;2.40;2.10;;;25.20;99.90;;;;;;5024018;28;20540;-74
2022/09/05 12:30:06;;;;;;;2.88;2.22;;;25.00;99.90;;;;;;5033115;28;20033;-74
2022/09/05 12:32:32;;;;;;;4.03;2.47;;;25.20;99.90;;;;;;5033111;28;20029;-73
2022/09/05 12:35:00;;;;;;;4.15;2.05;;;25.20;99.90;;;;;;5019668;28;20537;-73
2022/09/05 12:38:04;;;;;;;3.17;1.80;;;25.20;99.90;;;;;;5018780;28;20033;-74
2022/09/05 12:40:35;;;;;;;4.85;2.67;;;25.30;99.90;;;;;;5001153;28;20490;-74
2022/09/05 12:43:05;;;;;;;3.30;1.92;;;26.10;99.90;;;;;;5027787;28;20025;-75
2022/09/05 12:45:48;;;;;;;3.00;2.22;;;26.00;99.90;;;;;;5025232;28;20021;-76
2022/09/05 12:48:14;;;;;;;2.13;1.98;;;25.80;99.90;;;;;;5020849;28;20030;-75
2022/09/05 12:50:57;;;;;;;1.98;1.85;;;25.60;99.90;;;;;;5019518;28;20467;-75
2022/09/05 12:53:24;;;;;;;3.33;2.03;;;25.40;99.90;;;;;;5021301;28;20084;-75
2022/09/05 12:56:07;;;;;;;2.30;1.70;;;25.30;99.90;;;;;;5016816;28;20022;-73
2022/09/05 12:58:34;;;;;;;2.33;2.10;;;25.30;99.90;;;;;;5019557;28;20034;-74
2022/09/05 13:01:13;;;;;;;4.38;2.00;;;25.40;99.90;;;;;;5024868;28;20486;-73
2022/09/05 13:03:51;;;;;;;3.30;2.00;;;25.50;99.90;;;;;;5027484;28;20022;-73
2022/09/05 13:06:29;;;;;;;2.22;2.03;;;25.50;99.90;;;;;;5022863;28;20029;-73
2022/09/05 13:09:03;;;;;;;2.55;2.30;;;25.30;99.90;;;;;;5026041;28;20706;-73
2022/09/05 13:11:38;;;;;;;3.33;2.00;;;25.40;99.90;;;;;;5023806;28;20037;-74
2022/09/05 13:14:16;;;;;;;2.75;2.00;;;25.60;99.90;;;;;;5020165;28;20556;-74
2022/09/05 13:16:45;;;;;;;5.00;2.10;;;25.60;99.90;;;;;;5029740;28;20030;-74
2022/09/05 13:19:32;;;;;;;2.00;1.90;;;25.50;99.90;;;;;;5020487;28;20117;-73
2022/09/05 13:22:00;;;;;;;2.05;1.65;;;25.50;99.90;;;;;;5017378;28;20036;-74
2022/09/05 13:24:33;;;;;;;2.30;2.10;;;25.60;99.90;;;;;;5029866;28;20112;-74
2022/09/05 13:27:22;;;;;;;2.30;2.10;;;25.80;99.90;;;;;;5013404;28;20022;-74
2022/09/05 13:29:52;;;;;;;3.53;2.15;;;28.80;99.90;;;;;;5023454;28;20025;-74
2022/09/05 13:32:33;;;;;;;2.30;2.10;;;30.00;99.90;;;;;;5021632;28;20081;-74
2022/09/05 13:35:35;;;;;;;2.80;2.00;;;30.70;99.90;;;;;;5016421;28;20402;-74
2022/09/05 13:38:13;;;;;;;5.32;2.22;;;32.20;99.90;;;;;;5011424;28;20058;-74
2022/09/05 13:40:47;;;;;;;2.30;2.10;;;32.60;99.90;;;;;;5024480;28;20101;-75
2022/09/05 13:43:13;;;;;;;3.67;1.90;;;32.40;99.70;;;;;;5031746;28;20029;-74
2022/09/05 13:45:54;;;;;;;8.80;2.42;;;33.90;98.40;;;;;;5031793;28;20033;-74
2022/09/05 13:48:52;;;;;;;2.17;2.00;;;34.30;96.60;;;;;;5031636;28;20515;-74
2022/09/05 13:51:42;;;;;;;4.85;2.47;;;34.10;95.70;;;;;;5030189;28;20116;-73
2022/09/05 13:54:11;;;;;;;2.92;2.25;;;34.00;95.20;;;;;;5031957;28;20017;-73
2022/09/05 13:57:02;;;;;;;2.45;1.80;;;33.70;94.40;;;;;;5031864;28;20454;-72
2022/09/05 13:59:38;;;;;;;2.67;1.95;;;33.70;94.80;;;;;;5030479;28;20033;-74
2022/09/05 14:02:23;;;;;;;1.90;1.80;;;34.40;93.30;;;;;;5029657;28;20103;-74
2022/09/05 14:04:58;;;;;;;2.17;1.98;;;35.60;92.50;;;;;;5030480;28;20017;-73